sensor_id;sensor_type;location;lat;lon;timestamp;P1;durP1;ratioP1;P2;durP2;ratioP2
18820;SDS011;9539;59.332;18.034;2023-11-19T00:01:01;4.63;;;2.10;;
18820;SDS011;9539;59.332;18.034;2023-11-19T00:03:25;2.03;;;1.90;;
18820;SDS011;9539;59.332;18.034;2023-11-19T00:05:48;2.58;;;2.15;;
18820;SDS011;9539;59.332;18.034;2023-11-19T00:08:10;2.28;;;2.05;;
18820;SDS011;9539;59.332;18.034;2023-11-19T00:10:33;2.15;;;2.05;;
18820;SDS011;9539;59.332;18.034;2023-11-19T00:12:54;2.70;;;2.25;;
18820;SDS011;9539;59.332;18.034;2023-11-19T00:15:18;2.30;;;2.10;;
18820;SDS011;9539;59.332;18.034;2023-11-19T00:17:40;3.05;;;2.65;;
18820;SDS011;9539;59.332;18.034;2023-11-19T00:20:05;2.33;;;2.08;;
18820;SDS011;9539;59.332;18.034;2023-11-19T00:22:28;2.25;;;2.05;;
18820;SDS011;9539;59.332;18.034;2023-11-19T00:24:49;3.92;;;2.30;;
18820;SDS011;9539;59.332;18.034;2023-11-19T00:27:10;2.40;;;2.20;;
18820;SDS011;9539;59.332;18.034;2023-11-19T00:29:32;2.70;;;1.98;;
18820;SDS011;9539;59.332;18.034;2023-11-19T00:31:56;2.67;;;2.22;;
18820;SDS011;9539;59.332;18.034;2023-11-19T00:34:18;2.28;;;2.08;;
18820;SDS011;9539;59.332;18.034;2023-11-19T00:36:42;4.43;;;2.00;;
18820;SDS011;9539;59.332;18.034;2023-11-19T00:39:05;3.67;;;2.35;;
18820;SDS011;9539;59.332;18.034;2023-11-19T00:41:27;2.20;;;2.00;;
18820;SDS011;9539;59.332;18.034;2023-11-19T00:43:49;2.83;;;2.03;;
18820;SDS011;9539;59.332;18.034;2023-11-19T00:46:10;2.22;;;2.03;;
18820;SDS011;9539;59.332;18.034;2023-11-19T00:48:35;2.85;;;2.00;;
18820;SDS011;9539;59.332;18.034;2023-11-19T00:50:57;2.10;;;1.90;;
18820;SDS011;9539;59.332;18.034;2023-11-19T00:53:18;2.10;;;2.00;;
18820;SDS011;9539;59.332;18.034;2023-11-19T00:55:40;3.15;;;2.22;;
18820;SDS011;9539;59.332;18.034;2023-11-19T00:58:02;2.90;;;2.10;;
18820;SDS011;9539;59.332;18.034;2023-11-19T01:00:24;2.70;;;2.20;;
18820;SDS011;9539;59.332;18.034;2023-11-19T01:02:47;2.20;;;2.00;;
18820;SDS011;9539;59.332;18.034;2023-11-19T01:05:11;2.58;;;2.38;;
18820;SDS011;9539;59.332;18.034;2023-11-19T01:07:35;3.45;;;2.20;;
18820;SDS011;9539;59.332;18.034;2023-11-19T01:09:57;5.95;;;2.40;;
18820;SDS011;9539;59.332;18.034;2023-11-19T01:12:19;2.78;;;2.47;;
18820;SDS011;9539;59.332;18.034;2023-11-19T01:14:40;3.20;;;2.38;;
18820;SDS011;9539;59.332;18.034;2023-11-19T01:17:03;2.45;;;2.25;;
18820;SDS011;9539;59.332;18.034;2023-11-19T01:19:26;2.40;;;2.20;;
18820;SDS011;9539;59.332;18.034;2023-11-19T01:21:50;3.08;;;2.00;;
18820;SDS011;9539;59.332;18.034;2023-11-19T01:24:12;2.60;;;2.10;;
18820;SDS011;9539;59.332;18.034;2023-11-19T01:26:34;2.60;;;2.25;;
18820;SDS011;9539;59.332;18.034;2023-11-19T01:28:56;2.60;;;2.40;;
18820;SDS011;9539;59.332;18.034;2023-11-19T01:31:18;2.83;;;2.45;;
18820;SDS011;9539;59.332;18.034;2023-11-19T01:33:40;2.50;;;2.30;;
18820;SDS011;9539;59.332;18.034;2023-11-19T01:36:02;2.53;;;2.33;;
18820;SDS011;9539;59.332;18.034;2023-11-19T01:38:26;3.80;;;2.40;;
18820;SDS011;9539;59.332;18.034;2023-11-19T01:40:48;3.33;;;2.30;;
18820;SDS011;9539;59.332;18.034;2023-11-19T01:43:10;3.33;;;2.55;;
18820;SDS011;9539;59.332;18.034;2023-11-19T01:45:39;3.60;;;2.97;;
18820;SDS011;9539;59.332;18.034;2023-11-19T01:48:02;2.60;;;2.40;;
18820;SDS011;9539;59.332;18.034;2023-11-19T01:50:25;2.42;;;2.22;;
18820;SDS011;9539;59.332;18.034;2023-11-19T01:52:47;4.05;;;2.30;;
18820;SDS011;9539;59.332;18.034;2023-11-19T01:55:11;2.50;;;2.30;;
18820;SDS011;9539;59.332;18.034;2023-11-19T01:57:34;2.67;;;2.47;;
18820;SDS011;9539;59.332;18.034;2023-11-19T01:59:57;2.55;;;2.22;;
18820;SDS011;9539;59.332;18.034;2023-11-19T02:02:19;4.18;;;2.30;;
18820;SDS011;9539;59.332;18.034;2023-11-19T02:04:42;2.50;;;2.00;;
18820;SDS011;9539;59.332;18.034;2023-11-19T02:07:04;3.80;;;2.85;;
18820;SDS011;9539;59.332;18.034;2023-11-19T02:09:26;3.88;;;2.58;;
18820;SDS011;9539;59.332;18.034;2023-11-19T02:11:50;3.08;;;2.50;;
18820;SDS011;9539;59.332;18.034;2023-11-19T02:14:12;2.55;;;2.25;;
18820;SDS011;9539;59.332;18.034;2023-11-19T02:16:34;2.35;;;2.15;;
18820;SDS011;9539;59.332;18.034;2023-11-19T02:18:56;2.97;;;2.50;;
18820;SDS011;9539;59.332;18.034;2023-11-19T02:21:17;2.22;;;2.00;;
18820;SDS011;9539;59.332;18.034;2023-11-19T02:23:40;2.25;;;2.05;;
18820;SDS011;9539;59.332;18.034;2023-11-19T02:26:03;2.40;;;2.10;;
18820;SDS011;9539;59.332;18.034;2023-11-19T02:28:36;2.47;;;2.05;;
18820;SDS011;9539;59.332;18.034;2023-11-19T02:30:59;2.42;;;2.15;;
18820;SDS011;9539;59.332;18.034;2023-11-19T02:33:21;2.97;;;2.15;;
18820;SDS011;9539;59.332;18.034;2023-11-19T02:35:43;3.50;;;2.10;;
18820;SDS011;9539;59.332;18.034;2023-11-19T02:38:05;2.20;;;2.00;;
18820;SDS011;9539;59.332;18.034;2023-11-19T02:40:27;2.30;;;2.00;;
18820;SDS011;9539;59.332;18.034;2023-11-19T02:42:52;2.20;;;2.00;;
18820;SDS011;9539;59.332;18.034;2023-11-19T02:45:15;2.65;;;2.00;;
18820;SDS011;9539;59.332;18.034;2023-11-19T02:47:37;2.65;;;2.03;;
18820;SDS011;9539;59.332;18.034;2023-11-19T02:49:59;1.90;;;1.80;;
18820;SDS011;9539;59.332;18.034;2023-11-19T02:52:22;1.85;;;1.70;;
18820;SDS011;9539;59.332;18.034;2023-11-19T02:54:45;5.18;;;2.25;;
18820;SDS011;9539;59.332;18.034;2023-11-19T02:57:07;3.47;;;2.25;;
18820;SDS011;9539;59.332;18.034;2023-11-19T02:59:30;2.25;;;2.05;;
18820;SDS011;9539;59.332;18.034;2023-11-19T03:02:00;2.60;;;2.20;;
18820;SDS011;9539;59.332;18.034;2023-11-19T03:04:22;8.45;;;2.42;;
18820;SDS011;9539;59.332;18.034;2023-11-19T03:06:47;2.97;;;2.40;;
18820;SDS011;9539;59.332;18.034;2023-11-19T03:09:08;4.55;;;2.30;;
18820;SDS011;9539;59.332;18.034;2023-11-19T03:11:31;3.88;;;2.97;;
18820;SDS011;9539;59.332;18.034;2023-11-19T03:13:52;6.60;;;2.70;;
18820;SDS011;9539;59.332;18.034;2023-11-19T03:16:14;3.08;;;2.75;;
18820;SDS011;9539;59.332;18.034;2023-11-19T03:18:38;3.25;;;2.60;;
18820;SDS011;9539;59.332;18.034;2023-11-19T03:21:00;3.65;;;2.85;;
18820;SDS011;9539;59.332;18.034;2023-11-19T03:23:23;3.83;;;2.88;;
18820;SDS011;9539;59.332;18.034;2023-11-19T03:25:45;2.90;;;2.70;;
18820;SDS011;9539;59.332;18.034;2023-11-19T03:28:07;2.70;;;2.45;;
18820;SDS011;9539;59.332;18.034;2023-11-19T03:30:29;2.80;;;2.47;;
18820;SDS011;9539;59.332;18.034;2023-11-19T03:32:51;2.85;;;2.53;;
18820;SDS011;9539;59.332;18.034;2023-11-19T03:35:14;3.08;;;2.67;;
18820;SDS011;9539;59.332;18.034;2023-11-19T03:37:36;3.00;;;2.70;;
18820;SDS011;9539;59.332;18.034;2023-11-19T03:39:57;3.30;;;2.60;;
18820;SDS011;9539;59.332;18.034;2023-11-19T03:42:20;2.60;;;2.40;;
18820;SDS011;9539;59.332;18.034;2023-11-19T03:44:42;2.85;;;2.40;;
18820;SDS011;9539;59.332;18.034;2023-11-19T03:47:04;3.25;;;2.95;;
18820;SDS011;9539;59.332;18.034;2023-11-19T03:49:27;3.88;;;3.00;;
18820;SDS011;9539;59.332;18.034;2023-11-19T03:51:50;3.20;;;2.90;;
18820;SDS011;9539;59.332;18.034;2023-11-19T03:54:12;3.25;;;2.95;;
18820;SDS011;9539;59.332;18.034;2023-11-19T03:56:34;7.88;;;3.40;;
18820;SDS011;9539;59.332;18.034;2023-11-19T03:58:56;3.42;;;2.70;;
18820;SDS011;9539;59.332;18.034;2023-11-19T04:01:18;3.03;;;2.72;;
18820;SDS011;9539;59.332;18.034;2023-11-19T04:03:40;3.28;;;2.40;;
18820;SDS011;9539;59.332;18.034;2023-11-19T04:06:02;2.92;;;2.63;;
18820;SDS011;9539;59.332;18.034;2023-11-19T04:08:26;3.03;;;2.58;;
18820;SDS011;9539;59.332;18.034;2023-11-19T04:10:48;6.28;;;2.58;;
18820;SDS011;9539;59.332;18.034;2023-11-19T04:13:10;2.83;;;2.50;;
18820;SDS011;9539;59.332;18.034;2023-11-19T04:15:32;3.47;;;2.95;;
18820;SDS011;9539;59.332;18.034;2023-11-19T04:17:54;4.47;;;3.20;;
18820;SDS011;9539;59.332;18.034;2023-11-19T04:20:16;3.45;;;2.80;;
18820;SDS011;9539;59.332;18.034;2023-11-19T04:22:38;3.80;;;2.90;;
18820;SDS011;9539;59.332;18.034;2023-11-19T04:25:02;3.85;;;2.95;;
18820;SDS011;9539;59.332;18.034;2023-11-19T04:27:25;3.50;;;3.10;;
18820;SDS011;9539;59.332;18.034;2023-11-19T04:29:46;3.83;;;3.20;;
18820;SDS011;9539;59.332;18.034;2023-11-19T04:32:09;5.72;;;3.35;;
18820;SDS011;9539;59.332;18.034;2023-11-19T04:34:31;4.65;;;3.25;;
18820;SDS011;9539;59.332;18.034;2023-11-19T04:36:53;4.07;;;2.80;;
18820;SDS011;9539;59.332;18.034;2023-11-19T04:39:15;3.05;;;2.75;;
18820;SDS011;9539;59.332;18.034;2023-11-19T04:41:46;3.92;;;3.08;;
18820;SDS011;9539;59.332;18.034;2023-11-19T04:44:09;4.13;;;3.00;;
18820;SDS011;9539;59.332;18.034;2023-11-19T04:46:31;4.40;;;3.00;;
18820;SDS011;9539;59.332;18.034;2023-11-19T04:48:53;3.42;;;3.10;;
18820;SDS011;9539;59.332;18.034;2023-11-19T04:51:14;4.10;;;3.45;;
18820;SDS011;9539;59.332;18.034;2023-11-19T04:53:39;4.35;;;3.40;;
18820;SDS011;9539;59.332;18.034;2023-11-19T04:56:07;4.03;;;2.92;;
18820;SDS011;9539;59.332;18.034;2023-11-19T04:58:30;3.50;;;3.10;;
18820;SDS011;9539;59.332;18.034;2023-11-19T05:00:52;3.35;;;2.78;;
18820;SDS011;9539;59.332;18.034;2023-11-19T05:03:14;3.42;;;2.97;;
18820;SDS011;9539;59.332;18.034;2023-11-19T05:05:36;4.35;;;3.20;;
18820;SDS011;9539;59.332;18.034;2023-11-19T05:07:58;3.13;;;2.83;;
18820;SDS011;9539;59.332;18.034;2023-11-19T05:10:20;3.55;;;2.80;;
18820;SDS011;9539;59.332;18.034;2023-11-19T05:12:42;4.50;;;3.20;;
18820;SDS011;9539;59.332;18.034;2023-11-19T05:15:06;6.90;;;2.92;;
18820;SDS011;9539;59.332;18.034;2023-11-19T05:17:28;5.03;;;2.90;;
18820;SDS011;9539;59.332;18.034;2023-11-19T05:19:50;3.58;;;3.17;;
18820;SDS011;9539;59.332;18.034;2023-11-19T05:22:12;4.70;;;3.03;;
18820;SDS011;9539;59.332;18.034;2023-11-19T05:24:34;3.45;;;3.00;;
18820;SDS011;9539;59.332;18.034;2023-11-19T05:26:57;3.38;;;2.40;;
18820;SDS011;9539;59.332;18.034;2023-11-19T05:29:19;3.67;;;3.28;;
18820;SDS011;9539;59.332;18.034;2023-11-19T05:31:41;3.33;;;3.03;;
18820;SDS011;9539;59.332;18.034;2023-11-19T05:34:07;3.33;;;2.78;;
18820;SDS011;9539;59.332;18.034;2023-11-19T05:36:29;3.67;;;2.80;;
18820;SDS011;9539;59.332;18.034;2023-11-19T05:38:51;6.45;;;3.15;;
18820;SDS011;9539;59.332;18.034;2023-11-19T05:41:13;4.50;;;2.90;;
18820;SDS011;9539;59.332;18.034;2023-11-19T05:43:35;3.40;;;3.10;;
18820;SDS011;9539;59.332;18.034;2023-11-19T05:45:57;3.25;;;2.95;;
18820;SDS011;9539;59.332;18.034;2023-11-19T05:48:21;4.05;;;3.25;;
18820;SDS011;9539;59.332;18.034;2023-11-19T05:50:43;3.70;;;2.80;;
18820;SDS011;9539;59.332;18.034;2023-11-19T05:53:05;3.42;;;2.90;;
18820;SDS011;9539;59.332;18.034;2023-11-19T05:55:27;3.40;;;2.95;;
18820;SDS011;9539;59.332;18.034;2023-11-19T05:57:49;3.28;;;2.97;;
18820;SDS011;9539;59.332;18.034;2023-11-19T06:00:12;3.90;;;3.05;;
18820;SDS011;9539;59.332;18.034;2023-11-19T06:02:35;3.33;;;2.97;;
18820;SDS011;9539;59.332;18.034;2023-11-19T06:05:00;3.10;;;2.80;;
18820;SDS011;9539;59.332;18.034;2023-11-19T06:07:21;3.53;;;2.78;;
18820;SDS011;9539;59.332;18.034;2023-11-19T06:09:42;3.38;;;2.85;;
18820;SDS011;9539;59.332;18.034;2023-11-19T06:12:05;3.42;;;2.95;;
18820;SDS011;9539;59.332;18.034;2023-11-19T06:14:27;3.70;;;2.92;;
18820;SDS011;9539;59.332;18.034;2023-11-19T06:16:49;3.95;;;3.03;;
18820;SDS011;9539;59.332;18.034;2023-11-19T06:19:11;4.68;;;2.90;;
18820;SDS011;9539;59.332;18.034;2023-11-19T06:21:36;4.07;;;2.80;;
18820;SDS011;9539;59.332;18.034;2023-11-19T06:23:58;4.38;;;3.00;;
18820;SDS011;9539;59.332;18.034;2023-11-19T06:26:20;4.20;;;2.80;;
18820;SDS011;9539;59.332;18.034;2023-11-19T06:28:42;3.83;;;3.17;;
18820;SDS011;9539;59.332;18.034;2023-11-19T06:31:04;3.72;;;2.80;;
18820;SDS011;9539;59.332;18.034;2023-11-19T06:33:27;4.70;;;2.97;;
18820;SDS011;9539;59.332;18.034;2023-11-19T06:35:49;3.45;;;2.85;;
18820;SDS011;9539;59.332;18.034;2023-11-19T06:38:12;5.65;;;2.72;;
18820;SDS011;9539;59.332;18.034;2023-11-19T06:40:34;4.57;;;3.13;;
18820;SDS011;9539;59.332;18.034;2023-11-19T06:42:56;3.17;;;2.88;;
18820;SDS011;9539;59.332;18.034;2023-11-19T06:45:19;5.55;;;2.90;;
18820;SDS011;9539;59.332;18.034;2023-11-19T06:47:40;5.55;;;2.80;;
18820;SDS011;9539;59.332;18.034;2023-11-19T06:50:03;3.10;;;2.75;;
18820;SDS011;9539;59.332;18.034;2023-11-19T06:52:27;3.85;;;3.15;;
18820;SDS011;9539;59.332;18.034;2023-11-19T06:54:50;3.10;;;2.80;;
18820;SDS011;9539;59.332;18.034;2023-11-19T06:57:12;3.85;;;3.30;;
18820;SDS011;9539;59.332;18.034;2023-11-19T06:59:35;3.20;;;2.90;;
18820;SDS011;9539;59.332;18.034;2023-11-19T07:01:57;4.47;;;3.10;;
18820;SDS011;9539;59.332;18.034;2023-11-19T07:04:19;3.83;;;3.15;;
18820;SDS011;9539;59.332;18.034;2023-11-19T07:06:41;4.13;;;3.08;;
18820;SDS011;9539;59.332;18.034;2023-11-19T07:09:03;5.95;;;3.42;;
18820;SDS011;9539;59.332;18.034;2023-11-19T07:11:31;4.43;;;3.25;;
18820;SDS011;9539;59.332;18.034;2023-11-19T07:13:53;3.35;;;3.00;;
18820;SDS011;9539;59.332;18.034;2023-11-19T07:16:15;3.28;;;2.97;;
18820;SDS011;9539;59.332;18.034;2023-11-19T07:18:37;4.45;;;3.17;;
18820;SDS011;9539;59.332;18.034;2023-11-19T07:20:59;4.20;;;3.30;;
18820;SDS011;9539;59.332;18.034;2023-11-19T07:23:21;4.28;;;3.17;;
18820;SDS011;9539;59.332;18.034;2023-11-19T07:25:43;3.75;;;3.33;;
18820;SDS011;9539;59.332;18.034;2023-11-19T07:28:08;4.10;;;3.30;;
18820;SDS011;9539;59.332;18.034;2023-11-19T07:30:30;3.75;;;3.30;;
18820;SDS011;9539;59.332;18.034;2023-11-19T07:32:52;4.13;;;3.50;;
18820;SDS011;9539;59.332;18.034;2023-11-19T07:35:14;3.80;;;3.28;;
18820;SDS011;9539;59.332;18.034;2023-11-19T07:37:37;5.18;;;3.22;;
18820;SDS011;9539;59.332;18.034;2023-11-19T07:39:59;3.67;;;2.97;;
18820;SDS011;9539;59.332;18.034;2023-11-19T07:42:21;3.47;;;3.17;;
18820;SDS011;9539;59.332;18.034;2023-11-19T07:44:45;6.40;;;3.17;;
18820;SDS011;9539;59.332;18.034;2023-11-19T07:47:07;5.70;;;3.22;;
18820;SDS011;9539;59.332;18.034;2023-11-19T07:49:30;6.15;;;3.30;;
18820;SDS011;9539;59.332;18.034;2023-11-19T07:51:52;6.38;;;3.20;;
18820;SDS011;9539;59.332;18.034;2023-11-19T07:54:14;5.05;;;2.88;;
18820;SDS011;9539;59.332;18.034;2023-11-19T07:56:36;6.10;;;3.33;;
18820;SDS011;9539;59.332;18.034;2023-11-19T07:58:58;4.28;;;2.90;;
18820;SDS011;9539;59.332;18.034;2023-11-19T08:01:22;5.20;;;3.10;;
18820;SDS011;9539;59.332;18.034;2023-11-19T08:03:44;3.90;;;3.08;;
18820;SDS011;9539;59.332;18.034;2023-11-19T08:06:06;4.93;;;3.17;;
18820;SDS011;9539;59.332;18.034;2023-11-19T08:08:29;3.35;;;2.92;;
18820;SDS011;9539;59.332;18.034;2023-11-19T08:10:52;4.05;;;3.25;;
18820;SDS011;9539;59.332;18.034;2023-11-19T08:13:16;4.47;;;3.30;;
18820;SDS011;9539;59.332;18.034;2023-11-19T08:15:39;4.55;;;3.63;;
18820;SDS011;9539;59.332;18.034;2023-11-19T08:18:02;6.80;;;3.75;;
18820;SDS011;9539;59.332;18.034;2023-11-19T08:20:25;4.22;;;3.67;;
18820;SDS011;9539;59.332;18.034;2023-11-19T08:22:47;4.40;;;3.70;;
18820;SDS011;9539;59.332;18.034;2023-11-19T08:25:09;4.75;;;3.60;;
18820;SDS011;9539;59.332;18.034;2023-11-19T08:27:31;5.53;;;3.47;;
18820;SDS011;9539;59.332;18.034;2023-11-19T08:29:53;3.95;;;3.50;;
18820;SDS011;9539;59.332;18.034;2023-11-19T08:32:16;4.78;;;3.55;;
18820;SDS011;9539;59.332;18.034;2023-11-19T08:34:40;4.55;;;3.60;;
18820;SDS011;9539;59.332;18.034;2023-11-19T08:37:02;6.28;;;3.70;;
18820;SDS011;9539;59.332;18.034;2023-11-19T08:39:24;4.03;;;3.60;;
18820;SDS011;9539;59.332;18.034;2023-11-19T08:41:46;4.78;;;3.50;;
18820;SDS011;9539;59.332;18.034;2023-11-19T08:44:08;4.60;;;3.70;;
18820;SDS011;9539;59.332;18.034;2023-11-19T08:46:30;5.63;;;3.53;;
18820;SDS011;9539;59.332;18.034;2023-11-19T08:48:52;3.85;;;3.45;;
18820;SDS011;9539;59.332;18.034;2023-11-19T08:51:17;4.68;;;3.60;;
18820;SDS011;9539;59.332;18.034;2023-11-19T08:53:39;4.10;;;3.25;;
18820;SDS011;9539;59.332;18.034;2023-11-19T08:56:01;6.68;;;3.90;;
18820;SDS011;9539;59.332;18.034;2023-11-19T08:58:23;4.00;;;3.60;;
18820;SDS011;9539;59.332;18.034;2023-11-19T09:00:45;4.47;;;2.90;;
18820;SDS011;9539;59.332;18.034;2023-11-19T09:03:07;5.57;;;3.67;;
18820;SDS011;9539;59.332;18.034;2023-11-19T09:05:29;4.90;;;3.60;;
18820;SDS011;9539;59.332;18.034;2023-11-19T09:07:53;7.30;;;3.38;;
18820;SDS011;9539;59.332;18.034;2023-11-19T09:10:14;4.03;;;3.25;;
18820;SDS011;9539;59.332;18.034;2023-11-19T09:12:38;3.90;;;3.55;;
18820;SDS011;9539;59.332;18.034;2023-11-19T09:15:00;4.32;;;3.45;;
18820;SDS011;9539;59.332;18.034;2023-11-19T09:17:22;6.38;;;3.10;;
18820;SDS011;9539;59.332;18.034;2023-11-19T09:19:44;3.53;;;3.13;;
18820;SDS011;9539;59.332;18.034;2023-11-19T09:22:06;3.80;;;3.10;;
18820;SDS011;9539;59.332;18.034;2023-11-19T09:24:29;4.88;;;3.13;;
18820;SDS011;9539;59.332;18.034;2023-11-19T09:26:51;3.25;;;2.90;;
18820;SDS011;9539;59.332;18.034;2023-11-19T09:29:15;4.07;;;2.92;;
18820;SDS011;9539;59.332;18.034;2023-11-19T09:31:37;3.55;;;3.25;;
18820;SDS011;9539;59.332;18.034;2023-11-19T09:34:00;4.35;;;3.13;;
18820;SDS011;9539;59.332;18.034;2023-11-19T09:36:22;7.53;;;3.20;;
18820;SDS011;9539;59.332;18.034;2023-11-19T09:38:44;9.10;;;3.10;;
18820;SDS011;9539;59.332;18.034;2023-11-19T09:41:07;3.45;;;3.15;;
18820;SDS011;9539;59.332;18.034;2023-11-19T09:43:32;4.28;;;3.22;;
18820;SDS011;9539;59.332;18.034;2023-11-19T09:45:54;3.88;;;3.30;;
18820;SDS011;9539;59.332;18.034;2023-11-19T09:48:18;4.82;;;3.20;;
18820;SDS011;9539;59.332;18.034;2023-11-19T09:50:40;3.85;;;3.30;;
18820;SDS011;9539;59.332;18.034;2023-11-19T09:53:03;6.10;;;3.20;;
18820;SDS011;9539;59.332;18.034;2023-11-19T09:55:25;4.47;;;3.00;;
18820;SDS011;9539;59.332;18.034;2023-11-19T09:57:48;3.55;;;2.88;;
18820;SDS011;9539;59.332;18.034;2023-11-19T10:00:13;6.50;;;3.28;;
18820;SDS011;9539;59.332;18.034;2023-11-19T10:02:36;6.70;;;3.25;;
18820;SDS011;9539;59.332;18.034;2023-11-19T10:04:59;4.65;;;3.50;;
18820;SDS011;9539;59.332;18.034;2023-11-19T10:07:25;4.05;;;3.20;;
18820;SDS011;9539;59.332;18.034;2023-11-19T10:09:47;8.65;;;3.75;;
18820;SDS011;9539;59.332;18.034;2023-11-19T10:12:09;4.30;;;3.40;;
18820;SDS011;9539;59.332;18.034;2023-11-19T10:14:32;5.45;;;3.72;;
18820;SDS011;9539;59.332;18.034;2023-11-19T10:17:00;4.35;;;3.47;;
18820;SDS011;9539;59.332;18.034;2023-11-19T10:19:24;7.68;;;3.90;;
18820;SDS011;9539;59.332;18.034;2023-11-19T10:21:46;5.88;;;3.60;;
18820;SDS011;9539;59.332;18.034;2023-11-19T10:24:08;7.97;;;3.45;;
18820;SDS011;9539;59.332;18.034;2023-11-19T10:26:30;4.10;;;3.00;;
18820;SDS011;9539;59.332;18.034;2023-11-19T10:28:54;5.40;;;3.40;;
18820;SDS011;9539;59.332;18.034;2023-11-19T10:31:19;9.30;;;3.97;;
18820;SDS011;9539;59.332;18.034;2023-11-19T10:33:45;5.43;;;3.50;;
18820;SDS011;9539;59.332;18.034;2023-11-19T10:36:07;5.22;;;3.42;;
18820;SDS011;9539;59.332;18.034;2023-11-19T10:38:29;7.43;;;3.38;;
18820;SDS011;9539;59.332;18.034;2023-11-19T10:40:52;5.88;;;3.75;;
18820;SDS011;9539;59.332;18.034;2023-11-19T10:43:15;4.35;;;3.85;;
18820;SDS011;9539;59.332;18.034;2023-11-19T10:45:37;6.70;;;3.90;;
18820;SDS011;9539;59.332;18.034;2023-11-19T10:48:02;5.78;;;3.33;;
18820;SDS011;9539;59.332;18.034;2023-11-19T10:50:26;4.70;;;3.60;;
18820;SDS011;9539;59.332;18.034;2023-11-19T10:52:49;5.35;;;3.63;;
18820;SDS011;9539;59.332;18.034;2023-11-19T10:55:13;3.95;;;3.30;;
18820;SDS011;9539;59.332;18.034;2023-11-19T10:57:38;4.80;;;3.50;;
18820;SDS011;9539;59.332;18.034;2023-11-19T11:00:05;4.72;;;3.60;;
18820;SDS011;9539;59.332;18.034;2023-11-19T11:02:33;4.28;;;3.25;;
18820;SDS011;9539;59.332;18.034;2023-11-19T11:05:03;4.78;;;3.30;;
18820;SDS011;9539;59.332;18.034;2023-11-19T11:07:28;3.75;;;3.35;;
18820;SDS011;9539;59.332;18.034;2023-11-19T11:09:53;5.63;;;3.35;;
18820;SDS011;9539;59.332;18.034;2023-11-19T11:12:15;3.40;;;3.10;;
18820;SDS011;9539;59.332;18.034;2023-11-19T11:14:42;8.07;;;3.30;;
18820;SDS011;9539;59.332;18.034;2023-11-19T11:17:07;4.32;;;3.05;;
18820;SDS011;9539;59.332;18.034;2023-11-19T11:19:32;3.78;;;2.90;;
18820;SDS011;9539;59.332;18.034;2023-11-19T11:21:56;4.57;;;3.35;;
18820;SDS011;9539;59.332;18.034;2023-11-19T11:24:26;4.30;;;3.35;;
18820;SDS011;9539;59.332;18.034;2023-11-19T11:27:14;4.00;;;3.00;;
18820;SDS011;9539;59.332;18.034;2023-11-19T11:29:52;4.82;;;3.15;;
18820;SDS011;9539;59.332;18.034;2023-11-19T11:32:25;3.72;;;3.17;;
18820;SDS011;9539;59.332;18.034;2023-11-19T11:34:58;4.68;;;3.22;;
18820;SDS011;9539;59.332;18.034;2023-11-19T11:37:36;4.00;;;3.60;;
18820;SDS011;9539;59.332;18.034;2023-11-19T11:40:06;4.03;;;3.00;;
18820;SDS011;9539;59.332;18.034;2023-11-19T11:42:30;2.42;;;2.20;;
18820;SDS011;9539;59.332;18.034;2023-11-19T11:44:58;5.70;;;2.95;;
18820;SDS011;9539;59.332;18.034;2023-11-19T11:47:20;3.15;;;2.83;;
18820;SDS011;9539;59.332;18.034;2023-11-19T11:49:42;3.28;;;2.65;;
18820;SDS011;9539;59.332;18.034;2023-11-19T11:52:04;4.55;;;3.60;;
18820;SDS011;9539;59.332;18.034;2023-11-19T11:54:28;3.95;;;2.90;;
18820;SDS011;9539;59.332;18.034;2023-11-19T11:57:00;4.85;;;3.00;;
18820;SDS011;9539;59.332;18.034;2023-11-19T11:59:23;6.65;;;3.53;;
18820;SDS011;9539;59.332;18.034;2023-11-19T12:01:56;6.78;;;3.22;;
18820;SDS011;9539;59.332;18.034;2023-11-19T12:04:19;3.70;;;2.95;;
18820;SDS011;9539;59.332;18.034;2023-11-19T12:06:41;4.53;;;3.20;;
18820;SDS011;9539;59.332;18.034;2023-11-19T12:09:02;5.32;;;3.60;;
18820;SDS011;9539;59.332;18.034;2023-11-19T12:11:26;5.25;;;3.60;;
18820;SDS011;9539;59.332;18.034;2023-11-19T12:13:53;6.78;;;3.80;;
18820;SDS011;9539;59.332;18.034;2023-11-19T12:16:22;4.55;;;3.22;;
18820;SDS011;9539;59.332;18.034;2023-11-19T12:18:44;5.97;;;2.83;;
18820;SDS011;9539;59.332;18.034;2023-11-19T12:21:07;2.90;;;2.40;;
18820;SDS011;9539;59.332;18.034;2023-11-19T12:23:31;5.40;;;3.70;;
18820;SDS011;9539;59.332;18.034;2023-11-19T12:25:53;4.07;;;3.47;;
18820;SDS011;9539;59.332;18.034;2023-11-19T12:28:17;3.33;;;2.55;;
18820;SDS011;9539;59.332;18.034;2023-11-19T12:30:39;4.25;;;3.40;;
18820;SDS011;9539;59.332;18.034;2023-11-19T12:33:07;5.63;;;3.42;;
18820;SDS011;9539;59.332;18.034;2023-11-19T12:35:30;4.35;;;3.58;;
18820;SDS011;9539;59.332;18.034;2023-11-19T12:37:52;8.57;;;3.53;;
18820;SDS011;9539;59.332;18.034;2023-11-19T12:40:14;7.07;;;3.45;;
18820;SDS011;9539;59.332;18.034;2023-11-19T12:42:37;6.88;;;2.88;;
18820;SDS011;9539;59.332;18.034;2023-11-19T12:45:00;3.63;;;2.88;;
18820;SDS011;9539;59.332;18.034;2023-11-19T12:47:24;4.13;;;3.17;;
18820;SDS011;9539;59.332;18.034;2023-11-19T12:49:55;6.07;;;3.70;;
18820;SDS011;9539;59.332;18.034;2023-11-19T12:52:17;3.72;;;3.33;;
18820;SDS011;9539;59.332;18.034;2023-11-19T12:54:39;4.57;;;3.38;;
18820;SDS011;9539;59.332;18.034;2023-11-19T12:57:01;5.55;;;3.78;;
18820;SDS011;9539;59.332;18.034;2023-11-19T12:59:23;8.02;;;3.13;;
18820;SDS011;9539;59.332;18.034;2023-11-19T13:01:55;3.67;;;2.90;;
18820;SDS011;9539;59.332;18.034;2023-11-19T13:04:17;4.72;;;3.20;;
18820;SDS011;9539;59.332;18.034;2023-11-19T13:06:44;4.43;;;2.97;;
18820;SDS011;9539;59.332;18.034;2023-11-19T13:09:06;4.20;;;3.03;;
18820;SDS011;9539;59.332;18.034;2023-11-19T13:11:33;3.45;;;2.90;;
18820;SDS011;9539;59.332;18.034;2023-11-19T13:13:58;6.47;;;3.38;;
18820;SDS011;9539;59.332;18.034;2023-11-19T13:16:20;6.57;;;3.35;;
18820;SDS011;9539;59.332;18.034;2023-11-19T13:18:44;4.20;;;3.25;;
18820;SDS011;9539;59.332;18.034;2023-11-19T13:21:07;3.95;;;3.10;;
18820;SDS011;9539;59.332;18.034;2023-11-19T13:23:29;4.32;;;3.03;;
18820;SDS011;9539;59.332;18.034;2023-11-19T13:25:53;4.40;;;3.13;;
18820;SDS011;9539;59.332;18.034;2023-11-19T13:28:15;3.60;;;2.80;;
18820;SDS011;9539;59.332;18.034;2023-11-19T13:30:37;4.68;;;3.40;;
18820;SDS011;9539;59.332;18.034;2023-11-19T13:32:59;3.47;;;3.15;;
18820;SDS011;9539;59.332;18.034;2023-11-19T13:35:22;4.38;;;2.95;;
18820;SDS011;9539;59.332;18.034;2023-11-19T13:37:45;4.63;;;3.38;;
18820;SDS011;9539;59.332;18.034;2023-11-19T13:40:07;6.20;;;3.80;;
18820;SDS011;9539;59.332;18.034;2023-11-19T13:42:33;5.07;;;4.03;;
18820;SDS011;9539;59.332;18.034;2023-11-19T13:44:55;7.00;;;3.92;;
18820;SDS011;9539;59.332;18.034;2023-11-19T13:47:17;8.45;;;4.13;;
18820;SDS011;9539;59.332;18.034;2023-11-19T13:49:39;5.65;;;3.40;;
18820;SDS011;9539;59.332;18.034;2023-11-19T13:52:03;4.95;;;3.80;;
18820;SDS011;9539;59.332;18.034;2023-11-19T13:54:25;5.47;;;4.10;;
18820;SDS011;9539;59.332;18.034;2023-11-19T13:56:47;7.10;;;3.70;;
18820;SDS011;9539;59.332;18.034;2023-11-19T13:59:09;5.00;;;3.88;;
18820;SDS011;9539;59.332;18.034;2023-11-19T14:01:31;5.70;;;3.70;;
18820;SDS011;9539;59.332;18.034;2023-11-19T14:03:53;3.92;;;2.92;;
18820;SDS011;9539;59.332;18.034;2023-11-19T14:06:15;7.75;;;3.58;;
18820;SDS011;9539;59.332;18.034;2023-11-19T14:08:38;5.03;;;3.78;;
18820;SDS011;9539;59.332;18.034;2023-11-19T14:11:00;5.90;;;3.47;;
18820;SDS011;9539;59.332;18.034;2023-11-19T14:13:23;5.68;;;3.72;;
18820;SDS011;9539;59.332;18.034;2023-11-19T14:15:45;5.72;;;3.95;;
18820;SDS011;9539;59.332;18.034;2023-11-19T14:18:07;4.93;;;3.95;;
18820;SDS011;9539;59.332;18.034;2023-11-19T14:20:29;5.43;;;3.67;;
18820;SDS011;9539;59.332;18.034;2023-11-19T14:22:51;6.05;;;3.75;;